• Join FlightAware (Why Join?)
  • Login
  • US Flag 
09:16AM EDT


 

Airport Tracker/Info


-or-


 

Live Flight TrackerFlight Track Log ✈ FDX12 ✈ 03-May-2012 ✈ RJBB / KIX - KOAK

Flight Track Log - Related Links

Times and Time Zones

All times are in EDT time to prevent confusion due to time zone crossing. See the FDX12 flight status page for this flight to view local times or setup timezone preferences in your user account.

Time Position Orientation Groundspeed Altitude Reporting Facility
EDT Latitude Longitude Course Direction KTS MPH feet Rate Location/Type
08:28PM 41.4667 166.7833 76° East 508 585 33,000  Level Oakland Oceanic (ODAPS)
08:46PM 42.0000 170.0000 79° East 498 573 33,000  Level Oakland Oceanic (ODAPS)
08:55PM 42.2333 171.7333 80° East 495 570 33,000  Level Oakland Oceanic (ODAPS)
09:22PM 42.7667 176.6833 83° East 487 560 33,000  Level Oakland Oceanic (ODAPS)
09:40PM 43.0000 180.0000 87° East 484 557 33,000  Level Oakland Oceanic (ODAPS)
09:48PM 43.0500 -178.5833 88° East 482 555 33,000  Level Oakland Oceanic (ODAPS)
10:15PM 43.1000 -173.8500 91° East 476 548 33,000  Level Oakland Oceanic (ODAPS)
10:35PM 43.0000 -170.0000 86° East 517 595 35,000 60 Climbing Oakland Oceanic (ODAPS)
10:42PM 43.0500 -168.7500 87° East 524 603 35,000  Level Oakland Oceanic (ODAPS)
11:08PM 43.1000 -163.0500 92° East 541 623 35,000  Level Oakland Oceanic (ODAPS)
11:23PM 43.0000 -160.0000 94° East 534 615 35,000  Level Oakland Oceanic (ODAPS)
11:35PM 42.8500 -157.6667 96° East 538 619 35,000  Level Oakland Oceanic (ODAPS)
12:02AM 42.3167 -152.2833 100° East 541 623 35,000  Level Oakland Oceanic (ODAPS)
12:13AM 42.0000 -150.0000 94° East 565 650 35,000  Level Oakland Oceanic (ODAPS)
12:28AM 41.8000 -146.9833 96° East 570 656 35,000  Level Oakland Oceanic (ODAPS)
12:55AM 41.2000 -141.5000 100° East 588 677 35,000  Level Oakland Oceanic (ODAPS)
01:02AM 41.0000 -140.0000 102° East 576 663 35,000  Level Oakland Oceanic (ODAPS)
01:22AM 40.2333 -135.9000 105° East 574 661 35,000  Level Oakland Oceanic (ODAPS)
01:48AM 39.0000 -130.6333 108° East 558 642 35,000  Level Oakland Oceanic (ODAPS)
01:52AM 38.8333 -130.0000 106° East 556 640 35,000  Level Oakland Oceanic (ODAPS)
02:06AM 38.2000 -127.2589 108° East 546 628 35,000 -60 Level Oakland Center
02:07AM 38.1533 -127.0753 108° East 546 628 34,900 -60 Descending Oakland Center
02:08AM 38.1061 -126.8944 107° East 541 623 34,900  Level Oakland Center
02:09AM 38.0611 -126.7114 108° East 541 623 35,000  Climbing Oakland Center
02:10AM 38.0133 -126.5283 99° East 541 623 35,000  Level Oakland Center
02:11AM 37.9908 -126.3419 93° East 533 613 35,000  Level Oakland Center
02:12AM 37.9814 -126.1306 98° East 547 629 35,000  Level Oakland Center
02:13AM 37.9606 -125.9419 105° East 547 629 35,000  Level Oakland Center
02:14AM 37.9222 -125.7575 105° East 542 624 35,000  Level Oakland Center
02:15AM 37.8817 -125.5681 105° East 542 624 35,000 -60 Level Oakland Center
02:16AM 37.8428 -125.3842 106° East 542 624 34,900 -60 Descending Oakland Center
02:17AM 37.8017 -125.2003 106° East 542 624 34,900  Level Oakland Center
02:18AM 37.7603 -125.0142 106° East 542 624 35,000 -840 Climbing Oakland Center
02:19AM 37.7164 -124.8253 105° East 547 629 33,300 -2,340 Descending Oakland Center
02:20AM 37.6767 -124.6369 107° East 552 635 30,400 -3,000 Descending Oakland Center
02:21AM 37.6303 -124.4458 106° East 557 641 27,400 -3,060 Descending Oakland Center
02:22AM 37.5856 -124.2550 106° East 562 647 24,300 -2,460 Descending Oakland Center
02:23AM 37.5447 -124.0722 107° East 557 641 22,500 -1,560 Descending Oakland Center
02:24AM 37.5053 -123.9058 106° East 529 609 21,200 -1,620 Descending Oakland Center
02:25AM 37.4692 -123.7525 107° East 488 562 19,300 -2,100 Descending Oakland Center
02:26AM 37.4311 -123.5969 107° East 468 539 17,100 -2,220 Descending Oakland Center
02:27AM 37.3967 -123.4519 106° East 450 518 14,900 -1,860 Descending Oakland Center
02:28AM 37.3642 -123.3122 107° East 434 499 13,400 -1,440 Descending Oakland Center
02:29AM 37.3311 -123.1806 106° East 410 472 12,100 -1,080 Descending Oakland Center
02:30AM 37.3042 -123.0625 106° East 390 449 11,300 -780 Descending Oakland Center
02:31AM 37.2789 -122.9547 103° East 355 409 10,600 -660 Descending Oakland Center
02:32AM 37.2597 -122.8522 74° East 324 373 10,000 -600 Descending Oakland Center
02:33AM 37.2844 -122.7458 73° East 300 345 9,500 -720 Descending Oakland Center
02:34AM 37.3089 -122.6419 75° East 300 345 8,600 -780 Descending Oakland Center
02:35AM 37.3311 -122.5408 74° East 295 339 8,000 -300 Descending Oakland Center
02:36AM 37.3533 -122.4419 80° East 295 339 8,000  Level Oakland Center
02:37AM 37.3667 -122.3500 78° East 297 342 8,000  Level Northern Cal TRACON
02:38AM 37.3833 -122.2500 90° East 296 341 8,000 -240 Level Northern Cal TRACON
02:39AM 37.3833 -122.1500 76° East 280 322 7,600 -600 Descending Northern Cal TRACON
02:40AM 37.4000 -122.0667 90° East 246 283 6,900 -900 Descending Northern Cal TRACON
02:41AM 37.4000 -121.9833 28° Northeast 228 262 5,800 -960 Descending Northern Cal TRACON
02:42AM 37.4500 -121.9500 332° Northwest 213 245 5,000 -420 Descending Northern Cal TRACON
02:43AM 37.5000 -121.9833 345° North 210 242 5,000 -360 Level Northern Cal TRACON
02:44AM 37.5500 -122.0000 310° West 192 221 4,400 -900 Descending Northern Cal TRACON
02:45AM 37.5833 -122.0500 322° Northwest 190 219 3,300 -1,020 Descending Northern Cal TRACON
02:46AM 37.6333 -122.1000 293° West 188 216 2,300 -900 Descending Northern Cal TRACON
02:47AM 37.6500 -122.1500 322° Northwest 153 176 1,600 -840 Descending Northern Cal TRACON
02:48AM 37.6833 -122.1833 322° Northwest 153 176 700 -840 Descending Northern Cal TRACON